Time;durP1;ratioP1;P1;durP2;ratioP2;P2;SDS_P1;SDS_P2;PMS_P1;PMS_P2;Temp;Humidity;BMP_temperature;BMP_pressure;BME280_temperature;BME280_humidity;BME280_pressure;Samples;Min_cycle;Max_cycle;Signal;HPM_P1;HPM_P2
2022/03/14 00:00:00;;;;;;;7.68;5.07;;;;;;;4.12;44.92;101939.44;5052279;28;20176;-44
2022/03/14 00:02:25;;;;;;;8.88;5.35;;;;;;;4.09;45.28;101926.19;5052075;28;20182;-47
2022/03/14 00:04:51;;;;;;;7.80;5.18;;;;;;;4.01;45.58;101933.19;5037298;28;20278;-45
2022/03/14 00:07:18;;;;;;;8.82;5.13;;;;;;;4.03;45.20;101939.41;5032658;28;20249;-44
2022/03/14 00:09:43;;;;;;;9.35;5.75;;;;;;;4.21;44.72;101933.31;5032463;28;20168;-46
2022/03/14 00:12:13;;;;;;;7.25;5.30;;;;;;;4.13;44.69;101930.63;5030108;28;20672;-44
2022/03/14 00:14:38;;;;;;;7.07;5.57;;;;;;;4.20;44.57;101934.22;5032368;28;20251;-46
2022/03/14 00:17:06;;;;;;;7.57;5.07;;;;;;;4.17;44.63;101923.56;5032346;28;20650;-43
2022/03/14 00:19:32;;;;;;;6.35;5.30;;;;;;;4.27;44.40;101932.47;5032230;28;20575;-42
2022/03/14 00:21:59;;;;;;;7.13;5.32;;;;;;;4.25;44.25;101926.28;5032168;28;20295;-43
2022/03/14 00:24:25;;;;;;;7.85;5.68;;;;;;;4.30;44.22;101929.81;5031501;28;20269;-41
2022/03/14 00:26:54;;;;;;;7.35;5.35;;;;;;;4.30;43.81;101927.16;5032262;28;20187;-45
2022/03/14 00:29:21;;;;;;;7.35;5.30;;;;;;;4.41;43.51;101927.22;5031879;28;20705;-43
2022/03/14 00:31:47;;;;;;;10.82;5.47;;;;;;;4.32;43.85;101923.66;5032309;28;20257;-41
2022/03/14 00:34:13;;;;;;;7.10;5.72;;;;;;;4.31;43.83;101937.81;5031528;28;20219;-43
2022/03/14 00:36:41;;;;;;;9.55;5.90;;;;;;;4.36;43.89;101929.88;5032038;28;20314;-43
2022/03/14 00:39:06;;;;;;;9.18;5.45;;;;;;;4.37;43.63;101928.97;5032354;28;20548;-41
2022/03/14 00:41:32;;;;;;;9.82;5.88;;;;;;;4.21;43.98;101928.00;5031737;28;20180;-45
2022/03/14 00:43:57;;;;;;;10.45;6.00;;;;;;;4.31;43.78;101927.19;5031903;28;20202;-44
2022/03/14 00:46:23;;;;;;;9.05;5.53;;;;;;;4.27;43.83;101928.06;5031917;28;20188;-42
2022/03/14 00:48:49;;;;;;;8.10;5.70;;;;;;;4.20;44.06;101934.22;5029167;28;20202;-41
2022/03/14 00:51:15;;;;;;;7.53;5.72;;;;;;;4.34;43.54;101934.28;5031217;28;20172;-41
2022/03/14 00:53:40;;;;;;;10.48;5.80;;;;;;;4.18;44.12;101940.38;5031114;28;20682;-43
2022/03/14 00:56:06;;;;;;;9.77;5.95;;;;;;;4.21;43.79;101938.63;5032270;28;20179;-41
2022/03/14 00:58:33;;;;;;;8.35;6.03;;;;;;;4.35;43.14;101941.34;5032028;28;20167;-42
2022/03/14 01:01:03;;;;;;;9.70;6.45;;;;;;;4.31;43.44;101942.22;5032188;28;20215;-42
2022/03/14 01:03:28;;;;;;;10.73;6.32;;;;;;;4.27;43.50;101937.78;5035222;28;20692;-42
2022/03/14 01:05:53;;;;;;;9.52;6.32;;;;;;;4.33;43.39;101932.50;5051888;28;20203;-44
2022/03/14 01:08:19;;;;;;;8.77;6.10;;;;;;;4.25;43.48;101940.41;5051760;28;20186;-41
2022/03/14 01:10:46;;;;;;;8.52;6.30;;;;;;;4.36;43.13;101945.78;5051599;28;20191;-44
2022/03/14 01:13:12;;;;;;;8.60;6.15;;;;;;;4.21;43.71;101938.63;5051439;28;20266;-43
2022/03/14 01:15:38;;;;;;;11.27;6.80;;;;;;;4.17;43.68;101946.56;5052394;28;20207;-42
2022/03/14 01:18:05;;;;;;;10.00;6.03;;;;;;;4.23;43.64;101941.28;5052011;28;20781;-44
2022/03/14 01:20:32;;;;;;;11.35;6.40;;;;;;;4.20;43.60;101951.84;5052307;28;20163;-41
2022/03/14 01:22:57;;;;;;;8.18;6.03;;;;;;;4.26;43.48;101947.50;5051439;28;20188;-41
2022/03/14 01:25:26;;;;;;;9.48;6.63;;;;;;;4.23;43.37;101955.44;5052226;28;20256;-41
2022/03/14 01:27:53;;;;;;;10.48;7.40;;;;;;;4.12;43.83;101944.75;5052334;28;20221;-44
2022/03/14 01:30:19;;;;;;;8.13;6.40;;;;;;;4.17;43.88;101949.19;5051398;28;20543;-42
2022/03/14 01:32:46;;;;;;;9.90;7.00;;;;;;;4.33;43.16;101946.66;5052012;28;20314;-41
2022/03/14 01:35:11;;;;;;;11.90;7.25;;;;;;;4.22;43.31;101942.16;5052592;28;20171;-41
2022/03/14 01:37:37;;;;;;;10.55;7.00;;;;;;;4.23;43.15;101949.25;5052184;28;20733;-42
2022/03/14 01:40:07;;;;;;;10.70;6.75;;;;;;;4.22;43.15;101953.69;5052360;28;20248;-42
2022/03/14 01:42:32;;;;;;;8.40;6.38;;;;;;;4.20;43.23;101955.44;5051522;28;20301;-41
2022/03/14 01:44:58;;;;;;;8.57;6.72;;;;;;;4.23;43.27;101954.56;5052153;28;20187;-41
2022/03/14 01:47:24;;;;;;;9.13;6.28;;;;;;;4.24;43.37;101958.97;5052546;28;20163;-42
2022/03/14 01:49:49;;;;;;;8.85;6.40;;;;;;;4.17;43.23;101955.38;5051894;28;20167;-42
2022/03/14 01:52:15;;;;;;;12.48;7.07;;;;;;;4.29;42.84;101949.28;5051387;28;20184;-43
2022/03/14 01:54:41;;;;;;;11.18;7.82;;;;;;;4.08;43.60;101963.28;5051783;28;20179;-43
2022/03/14 01:57:08;;;;;;;10.82;6.88;;;;;;;4.24;43.08;101957.22;5051648;28;20187;-41
2022/03/14 01:59:37;;;;;;;10.60;6.97;;;;;;;4.17;43.07;101960.69;5052094;28;20172;-42
2022/03/14 02:02:11;;;;;;;9.77;7.13;;;;;;;4.18;43.10;101962.50;5050727;28;20175;-41
2022/03/14 02:04:36;;;;;;;12.40;7.80;;;;;;;4.13;43.16;101957.16;5051267;28;20199;-40
2022/03/14 02:07:04;;;;;;;9.00;7.18;;;;;;;4.16;43.11;101964.25;5050873;28;20167;-42
2022/03/14 02:09:29;;;;;;;11.27;7.30;;;;;;;4.21;43.09;101962.50;5051697;28;20178;-41
2022/03/14 02:11:55;;;;;;;11.35;7.03;;;;;;;4.18;42.91;101966.91;5050896;28;20273;-40
2022/03/14 02:14:21;;;;;;;9.90;6.53;;;;;;;4.11;43.23;101958.00;5050487;28;20681;-42
2022/03/14 02:16:46;;;;;;;10.77;7.05;;;;;;;4.21;42.92;101958.97;5050780;28;20630;-39
2022/03/14 02:19:12;;;;;;;9.77;7.13;;;;;;;4.09;43.12;101957.13;5050929;28;20169;-40
2022/03/14 02:21:38;;;;;;;10.90;7.30;;;;;;;4.07;43.15;101962.41;5050957;28;20270;-40
2022/03/14 02:24:04;;;;;;;10.27;7.68;;;;;;;4.04;43.28;101950.88;5050292;28;20266;-40
2022/03/14 02:26:41;;;;;;;10.77;7.05;;;;;;;4.01;43.47;101951.75;5049641;28;20210;-42
2022/03/14 02:29:11;;;;;;;12.98;7.45;;;;;;;3.96;43.57;101952.59;5039258;28;20251;-42
2022/03/14 02:31:37;;;;;;;10.75;7.25;;;;;;;4.04;43.20;101950.88;5048079;28;20171;-41
2022/03/14 02:34:03;;;;;;;12.35;7.60;;;;;;;3.96;43.58;101952.59;5050214;28;20192;-41
2022/03/14 02:36:29;;;;;;;10.57;7.65;;;;;;;4.00;43.14;101952.66;5044059;28;20188;-41
2022/03/14 02:38:54;;;;;;;12.52;7.85;;;;;;;3.88;43.77;101949.91;5049917;28;20175;-42
2022/03/14 02:41:22;;;;;;;11.75;8.07;;;;;;;3.95;43.31;101957.00;5050414;28;20175;-41
2022/03/14 02:43:54;;;;;;;11.00;7.57;;;;;;;4.00;43.40;101960.59;5050200;28;20210;-41
2022/03/14 02:46:21;;;;;;;12.23;7.85;;;;;;;3.99;43.41;101947.31;5049550;28;20250;-43
2022/03/14 02:48:46;;;;;;;14.05;8.18;;;;;;;4.03;43.08;101952.66;5048792;28;20571;-40
2022/03/14 02:51:12;;;;;;;12.05;8.02;;;;;;;4.09;42.90;101949.16;5050828;28;20213;-45
2022/03/14 02:53:37;;;;;;;12.00;7.45;;;;;;;4.03;43.23;101949.13;5049696;28;20245;-43
2022/03/14 02:56:03;;;;;;;11.02;7.55;;;;;;;3.92;43.28;101957.88;5050695;28;20221;-41
2022/03/14 02:58:33;;;;;;;12.52;8.13;;;;;;;3.98;42.96;101957.06;5049820;28;20190;-40
2022/03/14 03:01:02;;;;;;;12.55;8.30;;;;;;;4.01;42.66;101957.06;5050132;28;20156;-42
2022/03/14 03:03:28;;;;;;;11.38;7.93;;;;;;;3.96;43.13;101968.50;5046310;28;20519;-41
2022/03/14 03:05:54;;;;;;;12.02;8.02;;;;;;;3.88;43.43;101965.81;5029016;28;20203;-41
2022/03/14 03:08:22;;;;;;;14.07;8.43;;;;;;;3.79;43.66;101961.31;5030312;28;20195;-42
2022/03/14 03:10:48;;;;;;;14.77;7.95;;;;;;;3.78;43.25;101969.25;5029918;28;20164;-41
2022/03/14 03:13:13;;;;;;;12.60;8.10;;;;;;;3.85;43.13;101977.28;5031169;28;20196;-40
2022/03/14 03:15:39;;;;;;;11.90;8.20;;;;;;;3.79;43.12;101990.47;5034400;28;20210;-40
2022/03/14 03:18:05;;;;;;;13.57;8.07;;;;;;;3.78;43.23;101977.19;5032837;28;20626;-41
2022/03/14 03:20:31;;;;;;;14.60;8.35;;;;;;;3.76;43.07;101985.16;5034180;28;20172;-42
2022/03/14 03:22:56;;;;;;;12.27;7.95;;;;;;;3.65;43.76;101998.31;5033562;28;20187;-40
2022/03/14 03:25:22;;;;;;;12.80;8.40;;;;;;;3.65;43.22;101987.72;5033687;28;20671;-40
2022/03/14 03:27:48;;;;;;;14.65;8.13;;;;;;;3.52;43.72;101993.78;5034032;28;20172;-40
2022/03/14 03:30:13;;;;;;;12.18;7.82;;;;;;;3.45;44.33;101991.91;5033868;28;20238;-40
2022/03/14 03:32:39;;;;;;;11.43;7.70;;;;;;;3.39;44.36;101991.84;5031717;28;20200;-40
2022/03/14 03:35:05;;;;;;;13.68;8.10;;;;;;;3.37;44.29;101996.25;5033599;28;20543;-42
2022/03/14 03:37:31;;;;;;;11.95;8.13;;;;;;;3.23;45.17;101997.00;5033701;28;20239;-42
2022/03/14 03:39:56;;;;;;;12.98;8.45;;;;;;;3.22;45.18;101999.66;5034257;28;20283;-41
2022/03/14 03:42:22;;;;;;;13.20;8.32;;;;;;;3.12;44.77;102003.94;5032929;28;20168;-40
2022/03/14 03:44:47;;;;;;;16.45;8.07;;;;;;;3.14;45.12;102004.84;5033348;28;20813;-41
2022/03/14 03:47:13;;;;;;;12.48;8.35;;;;;;;3.07;45.61;102008.31;5033707;28;20227;-41
2022/03/14 03:49:38;;;;;;;12.18;8.25;;;;;;;3.09;45.51;102010.09;5033547;28;20184;-43
2022/03/14 03:52:05;;;;;;;10.27;7.88;;;;;;;3.02;46.02;102005.59;5033137;28;20467;-41
2022/03/14 03:54:30;;;;;;;10.77;8.02;;;;;;;3.16;45.31;101999.56;5032888;28;20200;-42
2022/03/14 03:56:55;;;;;;;10.82;8.05;;;;;;;3.06;45.67;102010.06;5032257;28;20182;-42
2022/03/14 03:59:21;;;;;;;13.18;8.32;;;;;;;3.16;45.40;102008.41;5032934;28;20172;-39
2022/03/14 04:01:47;;;;;;;13.75;8.73;;;;;;;3.04;45.72;102002.94;5033833;28;20606;-40
2022/03/14 04:04:13;;;;;;;14.70;8.52;;;;;;;3.18;45.21;102005.78;5031764;28;20711;-40
2022/03/14 04:06:39;;;;;;;15.30;9.13;;;;;;;3.18;45.36;102011.06;5033247;28;20183;-40
2022/03/14 04:09:06;;;;;;;11.80;8.60;;;;;;;3.21;45.13;102005.78;5032876;28;20226;-41
2022/03/14 04:11:31;;;;;;;13.32;8.30;;;;;;;3.30;45.31;102009.44;5033250;28;20218;-39
2022/03/14 04:13:58;;;;;;;12.05;8.32;;;;;;;3.28;45.32;102016.50;5031935;28;20671;-42
2022/03/14 04:16:26;;;;;;;13.55;8.25;;;;;;;3.36;44.78;102002.44;5034107;28;20179;-39
2022/03/14 04:18:55;;;;;;;12.45;8.48;;;;;;;3.24;45.19;102012.03;5033634;28;20159;-40
2022/03/14 04:21:20;;;;;;;16.10;8.75;;;;;;;3.33;44.87;102007.72;5033238;28;20195;-40
2022/03/14 04:23:46;;;;;;;14.88;8.73;;;;;;;3.27;44.98;102011.16;5030459;28;20208;-41
2022/03/14 04:26:12;;;;;;;15.57;9.10;;;;;;;3.34;45.03;102004.16;5033357;28;20303;-39
2022/03/14 04:28:39;;;;;;;15.32;9.20;;;;;;;3.33;45.02;102015.66;5045514;28;20256;-43
2022/03/14 04:31:09;;;;;;;14.57;9.10;;;;;;;3.37;44.69;102009.50;5051293;28;20550;-44
2022/03/14 04:33:35;;;;;;;15.27;8.63;;;;;;;3.28;45.01;102019.13;5052173;28;20222;-41
2022/03/14 04:36:01;;;;;;;14.68;8.90;;;;;;;3.26;45.08;102020.00;5050960;28;20228;-40
2022/03/14 04:38:28;;;;;;;14.07;9.13;;;;;;;3.26;45.15;102023.53;5052262;28;20233;-39
2022/03/14 04:40:56;;;;;;;14.85;8.65;;;;;;;3.22;44.94;102021.72;5044936;28;20250;-40
2022/03/14 04:43:21;;;;;;;13.20;9.05;;;;;;;3.18;45.18;102025.19;5052159;28;20731;-40
2022/03/14 04:45:48;;;;;;;15.02;8.80;;;;;;;3.19;45.33;102028.72;5052466;28;20227;-40
2022/03/14 04:48:15;;;;;;;12.65;8.90;;;;;;;3.09;45.33;102025.97;5052207;28;20654;-41
2022/03/14 04:50:42;;;;;;;12.95;8.52;;;;;;;3.09;45.53;102040.97;5052964;28;20218;-41
2022/03/14 04:53:09;;;;;;;13.32;8.18;;;;;;;2.96;45.91;102044.34;5050930;28;20602;-42
2022/03/14 04:55:35;;;;;;;13.05;9.23;;;;;;;2.85;46.91;102046.84;5051958;28;20651;-40
2022/03/14 04:58:02;;;;;;;13.90;8.88;;;;;;;2.81;46.61;102050.31;5052412;28;20179;-41
2022/03/14 05:00:28;;;;;;;15.05;9.07;;;;;;;2.59;47.38;102043.84;5052512;28;20164;-41
2022/03/14 05:03:01;;;;;;;14.35;9.73;;;;;;;2.71;46.71;102059.88;5052150;28;20567;-42
2022/03/14 05:05:27;;;;;;;15.43;10.07;;;;;;;2.72;47.07;102052.84;5051775;28;20221;-41
2022/03/14 05:07:52;;;;;;;18.98;10.05;;;;;;;2.62;47.51;102058.03;5051874;28;20191;-40
2022/03/14 05:10:18;;;;;;;16.42;10.18;;;;;;;2.61;47.11;102060.63;5052384;28;20262;-39
2022/03/14 05:12:47;;;;;;;14.35;9.65;;;;;;;2.50;48.09;102056.94;5050453;28;20199;-41
2022/03/14 05:15:15;;;;;;;17.25;9.55;;;;;;;2.40;48.26;102070.00;5051918;28;20182;-40
2022/03/14 05:17:41;;;;;;;14.45;9.57;;;;;;;2.39;47.76;102062.09;5051482;28;20178;-44
2022/03/14 05:20:08;;;;;;;13.48;9.30;;;;;;;2.40;47.96;102058.56;5051286;28;20163;-40
2022/03/14 05:22:41;;;;;;;14.93;10.02;;;;;;;2.31;48.25;102061.94;5053769;28;20206;-39
2022/03/14 05:25:07;;;;;;;17.10;10.20;;;;;;;2.15;49.12;102067.88;5051585;28;20186;-39
2022/03/14 05:27:32;;;;;;;14.73;8.95;;;;;;;2.22;48.86;102064.44;5051241;28;20182;-41
2022/03/14 05:29:57;;;;;;;18.40;10.40;;;;;;;2.19;49.17;102059.13;5051357;28;20246;-42
2022/03/14 05:32:23;;;;;;;15.38;9.90;;;;;;;2.23;48.59;102053.00;5050963;28;20633;-42
2022/03/14 05:34:48;;;;;;;14.65;9.85;;;;;;;2.25;48.90;102045.97;5049829;28;20168;-39
2022/03/14 05:37:14;;;;;;;17.75;10.02;;;;;;;2.21;48.62;102041.53;5050493;28;20573;-42
2022/03/14 05:39:39;;;;;;;15.85;10.00;;;;;;;2.21;48.94;102046.81;5051873;28;20206;-41
2022/03/14 05:42:05;;;;;;;14.63;9.82;;;;;;;2.20;49.20;102039.75;5049965;28;20703;-41
2022/03/14 05:44:30;;;;;;;18.75;10.40;;;;;;;2.26;49.30;102055.72;5049236;28;20734;-41
2022/03/14 05:46:56;;;;;;;16.88;10.38;;;;;;;2.25;48.68;102053.91;5070804;22;20222;-44
2022/03/14 05:49:21;;;;;;;16.42;9.48;;;;;;;2.28;49.09;102058.38;5069059;28;20660;-41
2022/03/14 05:51:49;;;;;;;16.80;10.52;;;;;;;2.27;48.83;102054.81;5069351;28;20182;-45
2022/03/14 05:54:14;;;;;;;16.65;9.95;;;;;;;2.27;48.79;102049.53;5069462;28;20194;-45
2022/03/14 05:56:40;;;;;;;18.17;10.90;;;;;;;2.26;48.82;102053.94;5068250;28;20178;-42
2022/03/14 05:59:10;;;;;;;14.63;9.95;;;;;;;2.24;48.76;102058.31;5069358;28;20160;-44
2022/03/14 06:01:38;;;;;;;18.48;10.90;;;;;;;2.11;49.98;102059.00;5069262;28;20236;-45
2022/03/14 06:04:03;;;;;;;17.20;10.45;;;;;;;2.37;48.94;102050.59;5060242;28;20187;-43
2022/03/14 06:06:29;;;;;;;19.75;10.57;;;;;;;2.37;48.77;102062.03;5049746;28;20236;-44
2022/03/14 06:08:54;;;;;;;16.60;10.63;;;;;;;2.33;48.30;102057.56;5031963;28;20193;-43
2022/03/14 06:11:20;;;;;;;19.00;10.40;;;;;;;2.49;47.98;102063.97;5049425;28;20186;-43
2022/03/14 06:13:46;;;;;;;18.08;11.50;;;;;;;2.61;48.22;102060.63;5048901;28;20731;-43
2022/03/14 06:16:13;;;;;;;18.48;10.82;;;;;;;2.67;47.92;102068.66;5049382;28;20226;-43
2022/03/14 06:18:38;;;;;;;19.60;10.82;;;;;;;2.69;47.76;102066.94;5049790;28;20681;-43
2022/03/14 06:21:04;;;;;;;17.38;10.93;;;;;;;2.70;47.98;102073.13;5049826;28;20172;-44
2022/03/14 06:23:30;;;;;;;19.73;11.95;;;;;;;2.77;47.71;102073.19;5049085;28;20543;-44
2022/03/14 06:25:55;;;;;;;16.38;10.48;;;;;;;2.81;47.52;102082.97;5047699;28;20661;-43
2022/03/14 06:28:22;;;;;;;20.50;11.48;;;;;;;2.85;47.61;102083.91;5049314;28;20654;-45
2022/03/14 06:30:50;;;;;;;17.98;11.27;;;;;;;2.89;47.68;102080.44;5049553;28;20187;-43
2022/03/14 06:33:15;;;;;;;15.48;11.18;;;;;;;3.08;47.98;102095.69;5049269;28;20549;-45
2022/03/14 06:35:41;;;;;;;18.00;11.23;;;;;;;3.17;47.94;102096.66;5048365;28;20191;-45
2022/03/14 06:38:07;;;;;;;17.27;11.27;;;;;;;3.26;46.82;102096.81;5049627;28;20251;-44
2022/03/14 06:40:32;;;;;;;17.85;11.13;;;;;;;3.39;46.81;102100.47;5049374;28;20167;-45
2022/03/14 06:42:59;;;;;;;17.48;10.88;;;;;;;3.42;47.07;102100.53;5047611;28;20187;-45
2022/03/14 06:45:25;;;;;;;19.80;11.45;;;;;;;3.55;46.44;102104.22;5049153;28;20221;-44
2022/03/14 06:47:54;;;;;;;15.50;11.38;;;;;;;3.62;46.66;102098.09;5052267;28;20191;-45
2022/03/14 06:50:21;;;;;;;20.33;11.43;;;;;;;3.66;46.59;102106.09;5053686;28;20163;-45
2022/03/14 06:52:47;;;;;;;18.17;10.90;;;;;;;3.98;45.64;102108.19;5052791;28;20217;-44
2022/03/14 06:55:13;;;;;;;18.58;11.70;;;;;;;4.22;44.90;102103.97;5053527;28;20724;-46
2022/03/14 06:57:39;;;;;;;17.10;11.48;;;;;;;4.38;44.17;102105.00;5052916;28;20167;-44
2022/03/14 07:00:06;;;;;;;19.77;12.05;;;;;;;4.56;43.65;102107.78;5061683;28;20187;-44
2022/03/14 07:02:31;;;;;;;21.40;12.10;;;;;;;4.76;43.13;102102.59;5071383;28;20213;-45
2022/03/14 07:04:58;;;;;;;18.25;11.90;;;;;;;4.73;42.84;102106.13;5057012;28;20180;-45
2022/03/14 07:07:23;;;;;;;15.70;11.45;;;;;;;5.14;42.36;102108.13;5052835;28;20649;-45
2022/03/14 07:09:48;;;;;;;19.25;11.88;;;;;;;5.27;42.09;102105.50;5053702;28;20167;-44
2022/03/14 07:12:14;;;;;;;21.05;12.32;;;;;;;5.25;41.62;102115.28;5070926;28;20179;-45
2022/03/14 07:14:40;;;;;;;16.63;11.02;;;;;;;5.55;41.02;102112.72;5072251;28;20573;-45
2022/03/14 07:17:05;;;;;;;18.70;12.40;;;;;;;5.43;41.33;102115.34;5073371;28;20175;-46
2022/03/14 07:19:31;;;;;;;19.75;11.85;;;;;;;5.63;41.31;102110.09;5073194;28;20190;-44
2022/03/14 07:21:56;;;;;;;16.15;10.73;;;;;;;5.92;40.53;102098.63;5072831;28;20537;-43
2022/03/14 07:24:22;;;;;;;17.45;11.80;;;;;;;6.20;39.81;102096.91;5072658;28;20714;-44
2022/03/14 07:26:48;;;;;;;22.60;11.30;;;;;;;5.99;40.23;102103.09;5072309;28;20166;-43
2022/03/14 07:29:14;;;;;;;18.80;11.48;;;;;;;5.93;39.37;102111.94;5074207;28;20173;-43
2022/03/14 07:31:41;;;;;;;20.23;12.57;;;;;;;6.04;40.04;102103.13;5071262;28;20206;-44
2022/03/14 07:34:07;;;;;;;16.77;11.32;;;;;;;5.96;39.62;102108.41;5077656;28;20190;-41
2022/03/14 07:36:34;;;;;;;19.35;11.60;;;;;;;6.03;39.30;102115.50;5073024;28;20180;-42
2022/03/14 07:39:00;;;;;;;17.15;11.57;;;;;;;6.36;39.21;102119.97;5081428;28;20230;-49
2022/03/14 07:41:26;;;;;;;17.88;11.63;;;;;;;6.11;39.48;102116.41;5093750;28;20268;-44
2022/03/14 07:43:51;;;;;;;17.45;11.48;;;;;;;6.73;39.20;102119.94;5092489;28;20269;-41
2022/03/14 07:46:17;;;;;;;20.35;12.35;;;;;;;6.65;38.55;102118.16;5093733;28;20247;-41
2022/03/14 07:48:43;;;;;;;19.05;11.70;;;;;;;6.49;38.92;102128.81;5092656;28;20170;-42
2022/03/14 07:51:09;;;;;;;20.00;11.93;;;;;;;6.44;38.45;102119.97;5092696;28;20165;-41
2022/03/14 07:53:34;;;;;;;16.77;11.85;;;;;;;6.38;38.92;102119.97;5091493;28;20210;-42
2022/03/14 07:56:03;;;;;;;18.55;11.98;;;;;;;6.43;38.81;102118.22;5092886;28;20206;-42
2022/03/14 07:58:29;;;;;;;17.77;11.95;;;;;;;6.86;38.29;102123.47;5091455;28;20181;-43
2022/03/14 08:00:55;;;;;;;17.92;12.13;;;;;;;6.84;38.26;102116.38;5092991;28;20651;-44
2022/03/14 08:03:21;;;;;;;17.95;11.95;;;;;;;6.96;38.17;102119.00;5087306;28;20212;-42
2022/03/14 08:05:48;;;;;;;17.52;11.82;;;;;;;7.10;37.73;102114.50;5052579;28;20807;-42
2022/03/14 08:08:15;;;;;;;17.90;11.68;;;;;;;7.38;37.89;102117.97;5054098;28;20266;-42
2022/03/14 08:10:41;;;;;;;19.27;12.30;;;;;;;7.33;37.99;102117.13;5070466;28;20159;-45
2022/03/14 08:13:07;;;;;;;16.88;12.10;;;;;;;7.20;37.23;102115.38;5071738;28;20697;-45
2022/03/14 08:15:34;;;;;;;18.83;12.18;;;;;;;7.43;36.94;102113.53;5071891;28;20163;-44
2022/03/14 08:18:05;;;;;;;18.02;11.80;;;;;;;7.61;36.96;102111.66;5072192;28;20578;-42
2022/03/14 08:20:32;;;;;;;17.48;11.45;;;;;;;7.74;36.63;102121.38;5072044;28;20163;-43
2022/03/14 08:23:00;;;;;;;19.50;12.77;;;;;;;7.31;35.68;102120.69;5069375;28;20629;-45
2022/03/14 08:25:29;;;;;;;20.25;12.43;;;;;;;7.56;36.20;102121.44;5071288;28;20226;-43
2022/03/14 08:27:55;;;;;;;17.95;11.55;;;;;;;7.33;36.32;102126.91;5070950;28;20546;-44
2022/03/14 08:30:22;;;;;;;15.43;11.63;;;;;;;7.79;36.41;102122.22;5071566;28;20205;-41
2022/03/14 08:32:49;;;;;;;17.00;11.57;;;;;;;8.24;35.93;102117.47;5069616;28;20226;-42
2022/03/14 08:35:15;;;;;;;17.27;11.75;;;;;;;8.39;35.64;102118.22;5072492;28;20179;-42
2022/03/14 08:37:43;;;;;;;17.35;11.55;;;;;;;8.48;35.57;102136.00;5071992;28;20263;-43
2022/03/14 08:40:13;;;;;;;18.27;11.63;;;;;;;8.52;35.32;102133.28;5071862;28;20743;-43
2022/03/14 08:42:41;;;;;;;16.70;11.27;;;;;;;8.32;34.83;102129.88;5071470;28;20292;-44
2022/03/14 08:45:08;;;;;;;16.67;11.13;;;;;;;8.63;34.24;102123.38;5071789;28;20187;-42
2022/03/14 08:47:34;;;;;;;17.33;11.23;;;;;;;8.24;35.14;102133.50;5071856;28;20187;-41
2022/03/14 08:50:02;;;;;;;16.35;11.68;;;;;;;8.34;34.61;102141.41;5072151;28;20190;-41
2022/03/14 08:52:28;;;;;;;17.70;12.10;;;;;;;8.36;34.54;102132.50;5070924;28;20163;-41
2022/03/14 08:54:54;;;;;;;16.70;11.82;;;;;;;8.48;34.61;102136.00;5071859;28;20629;-41
2022/03/14 08:57:21;;;;;;;16.40;12.05;;;;;;;8.57;34.16;102133.22;5072312;28;20254;-39
2022/03/14 08:59:46;;;;;;;16.65;11.20;;;;;;;8.62;34.81;102142.09;5071780;28;20198;-43
2022/03/14 09:02:11;;;;;;;19.02;12.27;;;;;;;8.63;34.50;102146.53;5071549;28;20281;-43
2022/03/14 09:04:38;;;;;;;15.77;11.82;;;;;;;8.54;35.08;102155.53;5057038;28;20309;-40
2022/03/14 09:07:06;;;;;;;20.65;12.20;;;;;;;8.63;35.17;102143.88;5051992;28;20550;-43
2022/03/14 09:09:32;;;;;;;16.13;12.10;;;;;;;8.62;34.74;102143.00;5052138;28;20174;-40
2022/03/14 09:11:58;;;;;;;16.95;11.45;;;;;;;8.62;34.72;102137.66;5051590;28;20167;-42
2022/03/14 09:14:24;;;;;;;18.80;12.05;;;;;;;8.56;34.78;102126.13;5051526;28;20572;-43
2022/03/14 09:16:50;;;;;;;19.63;11.52;;;;;;;8.34;35.05;102146.75;5051938;28;20249;-42
2022/03/14 09:19:16;;;;;;;15.15;10.95;;;;;;;8.60;35.67;102139.44;5051714;28;20185;-44
2022/03/14 09:21:41;;;;;;;15.48;11.20;;;;;;;8.57;35.56;102136.81;5051024;28;20183;-40
2022/03/14 09:24:07;;;;;;;18.65;11.73;;;;;;;8.59;36.06;102135.00;5050833;28;20233;-42
2022/03/14 09:26:35;;;;;;;17.25;11.45;;;;;;;8.40;35.67;102134.28;5051176;28;20668;-41
2022/03/14 09:29:04;;;;;;;18.05;11.35;;;;;;;8.36;35.37;102139.63;5050347;28;20171;-43
2022/03/14 09:31:29;;;;;;;19.65;12.27;;;;;;;8.55;35.84;102140.38;5051099;28;20183;-41
2022/03/14 09:33:55;;;;;;;15.25;11.52;;;;;;;8.73;36.08;102132.22;5050323;28;20190;-42
2022/03/14 09:36:23;;;;;;;17.50;12.32;;;;;;;8.58;35.64;102135.91;5050453;28;20179;-42
2022/03/14 09:38:48;;;;;;;19.23;12.18;;;;;;;8.33;36.20;102132.53;5051112;28;20178;-41
2022/03/14 09:41:17;;;;;;;16.05;11.43;;;;;;;8.58;36.18;102135.91;5050746;28;20210;-41
2022/03/14 09:43:46;;;;;;;17.83;12.10;;;;;;;8.19;36.04;102137.94;5050591;28;20522;-42
2022/03/14 09:46:12;;;;;;;15.85;11.68;;;;;;;8.39;36.56;102148.47;5050616;28;20183;-40
2022/03/14 09:48:40;;;;;;;17.42;12.07;;;;;;;8.95;36.99;102137.34;5051168;28;20180;-40
2022/03/14 09:51:07;;;;;;;18.90;11.98;;;;;;;8.77;35.57;102127.72;5050481;28;20209;-41
2022/03/14 09:53:35;;;;;;;26.23;12.02;;;;;;;8.89;35.94;102135.59;5049587;28;20537;-42
2022/03/14 09:56:01;;;;;;;15.90;11.60;;;;;;;8.62;35.69;102139.44;5050874;28;20536;-39
2022/03/14 09:58:26;;;;;;;18.27;12.10;;;;;;;8.44;35.81;102140.50;5050620;28;20179;-40
2022/03/14 10:00:53;;;;;;;17.05;12.52;;;;;;;8.55;36.02;102137.69;5050118;28;20214;-43
2022/03/14 10:03:19;;;;;;;18.00;12.50;;;;;;;8.52;36.38;102145.75;5049899;28;20276;-42
2022/03/14 10:05:45;;;;;;;14.80;11.63;;;;;;;8.55;36.32;102148.38;5049651;28;20246;-42
2022/03/14 10:08:11;;;;;;;17.83;11.82;;;;;;;8.97;36.45;102155.13;5050137;28;20198;-41
2022/03/14 10:10:37;;;;;;;17.38;12.45;;;;;;;8.78;36.44;102157.09;5049961;28;20191;-44
2022/03/14 10:13:07;;;;;;;17.88;13.02;;;;;;;9.16;36.34;102149.56;5049658;28;20230;-45
2022/03/14 10:15:36;;;;;;;16.65;11.82;;;;;;;9.18;35.33;102159.38;5050574;28;20681;-41
2022/03/14 10:18:15;;;;;;;17.70;12.57;;;;;;;9.46;35.07;102159.91;5048477;28;20183;-42
2022/03/14 10:21:02;;;;;;;18.27;11.93;;;;;;;9.32;35.48;102164.56;5063131;28;20195;-41
2022/03/14 10:23:41;;;;;;;16.73;11.80;;;;;;;9.70;33.89;102161.38;5068566;28;20273;-42
2022/03/14 10:26:10;;;;;;;20.40;12.55;;;;;;;9.86;34.07;102171.88;5070115;28;20202;-41
2022/03/14 10:28:38;;;;;;;18.50;12.40;;;;;;;10.11;35.59;102165.28;5070048;28;20569;-42
2022/03/14 10:31:04;;;;;;;19.55;13.25;;;;;;;10.23;35.33;102169.59;5069771;28;20182;-42
2022/03/14 10:33:31;;;;;;;17.35;13.25;;;;;;;9.87;35.74;102166.50;5069543;28;20285;-42
2022/03/14 10:35:57;;;;;;;17.85;13.25;;;;;;;9.63;36.55;102174.88;5069676;28;20170;-40
2022/03/14 10:38:26;;;;;;;19.08;13.35;;;;;;;9.47;35.58;102180.41;5070224;28;20586;-40
2022/03/14 10:40:52;;;;;;;20.58;13.45;;;;;;;9.76;35.45;102175.63;5069808;28;20190;-40
2022/03/14 10:43:30;;;;;;;19.92;13.20;;;;;;;9.79;35.12;102178.22;5069125;28;20596;-42
2022/03/14 10:45:57;;;;;;;17.45;12.80;;;;;;;10.02;36.16;102177.94;5069805;28;20186;-41
2022/03/14 10:48:39;;;;;;;17.55;12.27;;;;;;;9.75;36.47;102180.09;5069544;28;20186;-43
2022/03/14 10:51:06;;;;;;;16.13;12.30;;;;;;;9.66;34.98;102183.78;5069865;28;20170;-42
2022/03/14 10:53:34;;;;;;;15.30;11.13;;;;;;;9.89;35.80;102177.22;5069216;28;20198;-42
2022/03/14 10:56:01;;;;;;;16.63;11.75;;;;;;;9.62;34.87;102184.72;5070092;28;20195;-42
2022/03/14 10:58:33;;;;;;;15.95;11.82;;;;;;;10.02;35.25;102169.91;5070056;28;20231;-40
2022/03/14 11:01:01;;;;;;;17.48;12.38;;;;;;;10.21;34.68;102155.31;5069338;28;20170;-41
2022/03/14 11:03:30;;;;;;;14.68;11.10;;;;;;;10.25;35.13;102162.38;5066191;28;20210;-43
2022/03/14 11:06:05;;;;;;;15.68;11.35;;;;;;;10.31;34.67;102156.97;5049350;28;20278;-42
2022/03/14 11:08:47;;;;;;;14.32;11.45;;;;;;;9.78;35.08;102163.97;5047541;28;20183;-42
2022/03/14 11:11:22;;;;;;;14.02;11.18;;;;;;;9.96;35.12;102169.97;5049565;28;20178;-43
2022/03/14 11:13:50;;;;;;;17.17;12.15;;;;;;;10.38;34.26;102164.91;5049314;28;20214;-40
2022/03/14 11:16:22;;;;;;;15.52;11.90;;;;;;;10.13;34.15;102172.41;5049508;28;20203;-42
2022/03/14 11:18:48;;;;;;;19.33;12.18;;;;;;;10.19;34.47;102172.31;5049401;28;20266;-44